Terminal Aerodrome Forecast
Issued by NWS

Home | Current Version | Previous Version | Text Only | Print | Product List | Glossary On
Versions: 1 2 3 4 5 6 7 8 9 10 11 12 13 14 15 16
283
FTUS42 TJSJ 210256 AAA
TAFJBQ
TAF AMD
TJBQ 210256Z 2103/2124 08020KT P6SM VCSH SCT020 SCT035
      TEMPO 2103/2104 -SHRA SCT023 BKN028 BKN040
     FM211300 09020G30KT P6SM VCSH SCT030 BKN050
      AMD NOT SKED TIL 211100=

USA.gov is the U.S. government's official web portal to all federal, state and local government web resources and services.